sensor_id;sensor_type;location;lat;lon;timestamp;P1;durP1;ratioP1;P2;durP2;ratioP2
55364;SDS011;41245;45.384;20.390;2023-05-07T00:00:00;11.60;;;5.43;;
55364;SDS011;41245;45.384;20.390;2023-05-07T00:02:26;6.50;;;4.82;;
55364;SDS011;41245;45.384;20.390;2023-05-07T00:04:51;11.40;;;4.70;;
55364;SDS011;41245;45.384;20.390;2023-05-07T00:07:17;6.28;;;4.82;;
55364;SDS011;41245;45.384;20.390;2023-05-07T00:09:43;5.35;;;4.40;;
55364;SDS011;41245;45.384;20.390;2023-05-07T00:12:09;5.65;;;4.18;;
55364;SDS011;41245;45.384;20.390;2023-05-07T00:14:35;6.00;;;4.80;;
55364;SDS011;41245;45.384;20.390;2023-05-07T00:17:01;6.60;;;4.43;;
55364;SDS011;41245;45.384;20.390;2023-05-07T00:19:27;5.43;;;4.43;;
55364;SDS011;41245;45.384;20.390;2023-05-07T00:21:52;11.55;;;4.60;;
55364;SDS011;41245;45.384;20.390;2023-05-07T00:24:19;7.03;;;3.95;;
55364;SDS011;41245;45.384;20.390;2023-05-07T00:26:45;5.22;;;4.10;;
55364;SDS011;41245;45.384;20.390;2023-05-07T00:29:10;7.18;;;4.63;;
55364;SDS011;41245;45.384;20.390;2023-05-07T00:31:36;5.43;;;4.20;;
55364;SDS011;41245;45.384;20.390;2023-05-07T00:34:02;6.70;;;4.35;;
55364;SDS011;41245;45.384;20.390;2023-05-07T00:36:28;6.15;;;4.30;;
55364;SDS011;41245;45.384;20.390;2023-05-07T00:38:54;13.95;;;6.07;;
55364;SDS011;41245;45.384;20.390;2023-05-07T00:41:20;7.18;;;5.03;;
55364;SDS011;41245;45.384;20.390;2023-05-07T00:43:46;11.02;;;4.63;;
55364;SDS011;41245;45.384;20.390;2023-05-07T00:46:12;8.95;;;5.20;;
55364;SDS011;41245;45.384;20.390;2023-05-07T00:48:39;7.35;;;5.32;;
55364;SDS011;41245;45.384;20.390;2023-05-07T00:51:05;10.45;;;4.78;;
55364;SDS011;41245;45.384;20.390;2023-05-07T00:53:31;10.82;;;5.53;;
55364;SDS011;41245;45.384;20.390;2023-05-07T00:55:56;9.10;;;4.93;;
55364;SDS011;41245;45.384;20.390;2023-05-07T00:58:22;7.60;;;4.65;;
55364;SDS011;41245;45.384;20.390;2023-05-07T01:00:49;9.30;;;5.07;;
55364;SDS011;41245;45.384;20.390;2023-05-07T01:03:15;7.28;;;5.72;;
55364;SDS011;41245;45.384;20.390;2023-05-07T01:05:41;6.10;;;5.28;;
55364;SDS011;41245;45.384;20.390;2023-05-07T01:08:08;8.57;;;5.22;;
55364;SDS011;41245;45.384;20.390;2023-05-07T01:10:35;4.80;;;4.30;;
55364;SDS011;41245;45.384;20.390;2023-05-07T01:13:01;7.88;;;4.35;;
55364;SDS011;41245;45.384;20.390;2023-05-07T01:15:27;11.23;;;4.80;;
55364;SDS011;41245;45.384;20.390;2023-05-07T01:17:53;10.20;;;5.82;;
55364;SDS011;41245;45.384;20.390;2023-05-07T01:20:21;11.43;;;5.38;;
55364;SDS011;41245;45.384;20.390;2023-05-07T01:22:48;8.65;;;4.88;;
55364;SDS011;41245;45.384;20.390;2023-05-07T01:25:15;9.38;;;4.80;;
55364;SDS011;41245;45.384;20.390;2023-05-07T01:27:41;12.10;;;5.97;;
55364;SDS011;41245;45.384;20.390;2023-05-07T01:30:07;8.80;;;5.13;;
55364;SDS011;41245;45.384;20.390;2023-05-07T01:32:38;8.90;;;4.55;;
55364;SDS011;41245;45.384;20.390;2023-05-07T01:35:12;7.03;;;4.68;;
55364;SDS011;41245;45.384;20.390;2023-05-07T01:37:44;9.00;;;5.43;;
55364;SDS011;41245;45.384;20.390;2023-05-07T01:40:11;8.38;;;4.75;;
55364;SDS011;41245;45.384;20.390;2023-05-07T01:42:38;7.47;;;5.10;;
55364;SDS011;41245;45.384;20.390;2023-05-07T01:45:04;11.95;;;4.97;;
55364;SDS011;41245;45.384;20.390;2023-05-07T01:47:31;10.05;;;4.95;;
55364;SDS011;41245;45.384;20.390;2023-05-07T01:49:57;6.10;;;4.40;;
55364;SDS011;41245;45.384;20.390;2023-05-07T01:52:23;7.63;;;4.20;;
55364;SDS011;41245;45.384;20.390;2023-05-07T01:54:50;7.68;;;4.47;;
55364;SDS011;41245;45.384;20.390;2023-05-07T01:57:16;5.82;;;4.78;;
55364;SDS011;41245;45.384;20.390;2023-05-07T01:59:41;14.07;;;5.13;;
55364;SDS011;41245;45.384;20.390;2023-05-07T02:02:07;11.65;;;5.85;;
55364;SDS011;41245;45.384;20.390;2023-05-07T02:04:32;7.45;;;4.57;;
55364;SDS011;41245;45.384;20.390;2023-05-07T02:06:58;7.35;;;5.32;;
55364;SDS011;41245;45.384;20.390;2023-05-07T02:09:24;6.68;;;4.70;;
55364;SDS011;41245;45.384;20.390;2023-05-07T02:11:50;8.48;;;5.28;;
55364;SDS011;41245;45.384;20.390;2023-05-07T02:14:15;8.52;;;5.30;;
55364;SDS011;41245;45.384;20.390;2023-05-07T02:16:41;10.63;;;5.53;;
55364;SDS011;41245;45.384;20.390;2023-05-07T02:19:07;8.65;;;5.72;;
55364;SDS011;41245;45.384;20.390;2023-05-07T02:21:33;18.77;;;6.22;;
55364;SDS011;41245;45.384;20.390;2023-05-07T02:23:58;10.10;;;5.95;;
55364;SDS011;41245;45.384;20.390;2023-05-07T02:26:24;8.60;;;5.47;;
55364;SDS011;41245;45.384;20.390;2023-05-07T02:28:50;14.02;;;6.65;;
55364;SDS011;41245;45.384;20.390;2023-05-07T02:31:17;9.90;;;5.50;;
55364;SDS011;41245;45.384;20.390;2023-05-07T02:33:42;12.40;;;5.18;;
55364;SDS011;41245;45.384;20.390;2023-05-07T02:36:08;9.63;;;6.03;;
55364;SDS011;41245;45.384;20.390;2023-05-07T02:38:35;10.30;;;6.15;;
55364;SDS011;41245;45.384;20.390;2023-05-07T02:41:01;9.13;;;6.25;;
55364;SDS011;41245;45.384;20.390;2023-05-07T02:43:27;12.48;;;6.10;;
55364;SDS011;41245;45.384;20.390;2023-05-07T02:48:31;10.48;;;5.60;;
55364;SDS011;41245;45.384;20.390;2023-05-07T02:50:57;7.55;;;5.93;;
55364;SDS011;41245;45.384;20.390;2023-05-07T02:53:24;9.88;;;6.13;;
55364;SDS011;41245;45.384;20.390;2023-05-07T02:55:55;10.85;;;5.95;;
55364;SDS011;41245;45.384;20.390;2023-05-07T02:58:22;12.57;;;7.10;;
55364;SDS011;41245;45.384;20.390;2023-05-07T03:00:48;12.20;;;5.50;;
55364;SDS011;41245;45.384;20.390;2023-05-07T03:03:14;11.35;;;5.35;;
55364;SDS011;41245;45.384;20.390;2023-05-07T03:05:40;11.10;;;6.32;;
55364;SDS011;41245;45.384;20.390;2023-05-07T03:08:07;13.60;;;6.22;;
55364;SDS011;41245;45.384;20.390;2023-05-07T03:10:33;7.63;;;5.25;;
55364;SDS011;41245;45.384;20.390;2023-05-07T03:12:59;13.00;;;5.50;;
55364;SDS011;41245;45.384;20.390;2023-05-07T03:15:24;8.63;;;6.25;;
55364;SDS011;41245;45.384;20.390;2023-05-07T03:17:50;9.10;;;4.82;;
55364;SDS011;41245;45.384;20.390;2023-05-07T03:20:16;7.80;;;6.43;;
55364;SDS011;41245;45.384;20.390;2023-05-07T03:22:41;9.93;;;6.10;;
55364;SDS011;41245;45.384;20.390;2023-05-07T03:25:08;10.57;;;5.70;;
55364;SDS011;41245;45.384;20.390;2023-05-07T03:27:34;7.25;;;4.80;;
55364;SDS011;41245;45.384;20.390;2023-05-07T03:30:00;7.05;;;5.35;;
55364;SDS011;41245;45.384;20.390;2023-05-07T03:32:26;13.90;;;6.07;;
55364;SDS011;41245;45.384;20.390;2023-05-07T03:34:52;11.27;;;5.32;;
55364;SDS011;41245;45.384;20.390;2023-05-07T03:37:17;12.00;;;5.75;;
55364;SDS011;41245;45.384;20.390;2023-05-07T03:39:44;8.38;;;5.63;;
55364;SDS011;41245;45.384;20.390;2023-05-07T03:42:09;6.65;;;5.25;;
55364;SDS011;41245;45.384;20.390;2023-05-07T03:44:35;5.40;;;4.47;;
55364;SDS011;41245;45.384;20.390;2023-05-07T03:47:02;10.63;;;5.30;;
55364;SDS011;41245;45.384;20.390;2023-05-07T03:49:28;7.53;;;5.22;;
55364;SDS011;41245;45.384;20.390;2023-05-07T03:51:53;9.30;;;5.60;;
55364;SDS011;41245;45.384;20.390;2023-05-07T03:54:19;6.57;;;4.88;;
55364;SDS011;41245;45.384;20.390;2023-05-07T03:56:45;10.18;;;4.57;;
55364;SDS011;41245;45.384;20.390;2023-05-07T03:59:11;10.15;;;6.18;;
55364;SDS011;41245;45.384;20.390;2023-05-07T04:01:38;10.38;;;5.82;;
55364;SDS011;41245;45.384;20.390;2023-05-07T04:04:04;13.93;;;5.70;;
55364;SDS011;41245;45.384;20.390;2023-05-07T04:06:30;15.15;;;5.05;;
55364;SDS011;41245;45.384;20.390;2023-05-07T04:08:56;8.68;;;4.80;;
55364;SDS011;41245;45.384;20.390;2023-05-07T04:11:21;6.90;;;5.03;;
55364;SDS011;41245;45.384;20.390;2023-05-07T04:13:47;8.77;;;5.95;;
55364;SDS011;41245;45.384;20.390;2023-05-07T04:16:13;7.28;;;5.10;;
55364;SDS011;41245;45.384;20.390;2023-05-07T04:18:38;11.25;;;4.85;;
55364;SDS011;41245;45.384;20.390;2023-05-07T04:21:05;8.60;;;4.53;;
55364;SDS011;41245;45.384;20.390;2023-05-07T04:23:31;6.78;;;4.65;;
55364;SDS011;41245;45.384;20.390;2023-05-07T04:25:56;10.15;;;4.57;;
55364;SDS011;41245;45.384;20.390;2023-05-07T04:28:22;12.98;;;4.72;;
55364;SDS011;41245;45.384;20.390;2023-05-07T04:30:48;6.65;;;4.70;;
55364;SDS011;41245;45.384;20.390;2023-05-07T04:33:14;6.43;;;4.80;;
55364;SDS011;41245;45.384;20.390;2023-05-07T04:35:43;13.18;;;5.13;;
55364;SDS011;41245;45.384;20.390;2023-05-07T04:38:09;7.13;;;4.70;;
55364;SDS011;41245;45.384;20.390;2023-05-07T04:40:37;6.32;;;4.50;;
55364;SDS011;41245;45.384;20.390;2023-05-07T04:43:04;6.85;;;4.60;;
55364;SDS011;41245;45.384;20.390;2023-05-07T04:45:29;11.02;;;4.82;;
55364;SDS011;41245;45.384;20.390;2023-05-07T04:47:55;9.63;;;4.93;;
55364;SDS011;41245;45.384;20.390;2023-05-07T04:50:21;7.45;;;4.38;;
55364;SDS011;41245;45.384;20.390;2023-05-07T04:52:49;7.13;;;4.75;;
55364;SDS011;41245;45.384;20.390;2023-05-07T04:55:15;9.07;;;4.57;;
55364;SDS011;41245;45.384;20.390;2023-05-07T04:57:40;9.07;;;4.85;;
55364;SDS011;41245;45.384;20.390;2023-05-07T05:00:06;7.32;;;4.35;;
55364;SDS011;41245;45.384;20.390;2023-05-07T05:02:34;6.00;;;4.25;;
55364;SDS011;41245;45.384;20.390;2023-05-07T05:05:00;5.63;;;4.45;;
55364;SDS011;41245;45.384;20.390;2023-05-07T05:07:29;10.65;;;4.60;;
55364;SDS011;41245;45.384;20.390;2023-05-07T05:09:55;10.38;;;4.43;;
55364;SDS011;41245;45.384;20.390;2023-05-07T05:12:22;9.27;;;5.10;;
55364;SDS011;41245;45.384;20.390;2023-05-07T05:14:48;18.25;;;5.78;;
55364;SDS011;41245;45.384;20.390;2023-05-07T05:17:13;13.98;;;5.95;;
55364;SDS011;41245;45.384;20.390;2023-05-07T05:19:39;13.48;;;5.28;;
55364;SDS011;41245;45.384;20.390;2023-05-07T05:22:05;12.27;;;6.25;;
55364;SDS011;41245;45.384;20.390;2023-05-07T05:24:31;9.68;;;5.43;;
55364;SDS011;41245;45.384;20.390;2023-05-07T05:26:57;10.40;;;6.30;;
55364;SDS011;41245;45.384;20.390;2023-05-07T05:29:24;13.27;;;6.20;;
55364;SDS011;41245;45.384;20.390;2023-05-07T05:31:50;10.35;;;4.90;;
55364;SDS011;41245;45.384;20.390;2023-05-07T05:34:16;8.80;;;4.82;;
55364;SDS011;41245;45.384;20.390;2023-05-07T05:36:44;6.00;;;5.18;;
55364;SDS011;41245;45.384;20.390;2023-05-07T05:39:10;15.45;;;4.50;;
55364;SDS011;41245;45.384;20.390;2023-05-07T05:41:36;12.48;;;4.63;;
55364;SDS011;41245;45.384;20.390;2023-05-07T05:44:01;8.32;;;4.97;;
55364;SDS011;41245;45.384;20.390;2023-05-07T05:46:27;6.25;;;4.70;;
55364;SDS011;41245;45.384;20.390;2023-05-07T05:48:53;11.10;;;4.75;;
55364;SDS011;41245;45.384;20.390;2023-05-07T05:51:18;13.05;;;4.60;;
55364;SDS011;41245;45.384;20.390;2023-05-07T05:53:45;5.65;;;4.13;;
55364;SDS011;41245;45.384;20.390;2023-05-07T05:56:11;10.35;;;4.22;;
55364;SDS011;41245;45.384;20.390;2023-05-07T05:58:36;7.53;;;4.47;;
55364;SDS011;41245;45.384;20.390;2023-05-07T06:01:02;6.70;;;4.20;;
55364;SDS011;41245;45.384;20.390;2023-05-07T06:03:28;8.88;;;4.57;;
55364;SDS011;41245;45.384;20.390;2023-05-07T06:05:54;9.57;;;4.63;;
55364;SDS011;41245;45.384;20.390;2023-05-07T06:08:19;11.25;;;4.57;;
55364;SDS011;41245;45.384;20.390;2023-05-07T06:10:45;5.05;;;3.85;;
55364;SDS011;41245;45.384;20.390;2023-05-07T06:13:11;8.48;;;4.95;;
55364;SDS011;41245;45.384;20.390;2023-05-07T06:15:36;7.95;;;4.30;;
55364;SDS011;41245;45.384;20.390;2023-05-07T06:18:02;5.68;;;4.07;;
55364;SDS011;41245;45.384;20.390;2023-05-07T06:20:28;7.80;;;4.05;;
55364;SDS011;41245;45.384;20.390;2023-05-07T06:22:53;7.47;;;4.57;;
55364;SDS011;41245;45.384;20.390;2023-05-07T06:25:19;7.32;;;3.72;;
55364;SDS011;41245;45.384;20.390;2023-05-07T06:27:45;17.27;;;4.15;;
55364;SDS011;41245;45.384;20.390;2023-05-07T06:30:11;11.80;;;4.47;;
55364;SDS011;41245;45.384;20.390;2023-05-07T06:32:37;8.10;;;3.97;;
55364;SDS011;41245;45.384;20.390;2023-05-07T06:35:02;7.78;;;3.72;;
55364;SDS011;41245;45.384;20.390;2023-05-07T06:37:28;7.53;;;3.58;;
55364;SDS011;41245;45.384;20.390;2023-05-07T06:39:54;13.13;;;4.53;;
55364;SDS011;41245;45.384;20.390;2023-05-07T06:42:19;6.03;;;3.53;;
55364;SDS011;41245;45.384;20.390;2023-05-07T06:44:45;8.02;;;3.70;;
55364;SDS011;41245;45.384;20.390;2023-05-07T06:47:11;14.55;;;4.15;;
55364;SDS011;41245;45.384;20.390;2023-05-07T06:49:36;10.25;;;3.80;;
55364;SDS011;41245;45.384;20.390;2023-05-07T06:52:02;6.60;;;3.70;;
55364;SDS011;41245;45.384;20.390;2023-05-07T06:54:28;8.25;;;3.70;;
55364;SDS011;41245;45.384;20.390;2023-05-07T06:56:54;10.27;;;3.67;;
55364;SDS011;41245;45.384;20.390;2023-05-07T06:59:20;7.72;;;3.38;;
55364;SDS011;41245;45.384;20.390;2023-05-07T07:01:45;11.13;;;3.13;;
55364;SDS011;41245;45.384;20.390;2023-05-07T07:04:11;8.52;;;2.92;;
55364;SDS011;41245;45.384;20.390;2023-05-07T07:06:37;9.15;;;3.63;;
55364;SDS011;41245;45.384;20.390;2023-05-07T07:09:02;4.70;;;2.95;;
55364;SDS011;41245;45.384;20.390;2023-05-07T07:11:28;7.88;;;3.13;;
55364;SDS011;41245;45.384;20.390;2023-05-07T07:13:54;5.03;;;3.40;;
55364;SDS011;41245;45.384;20.390;2023-05-07T07:16:20;5.13;;;3.53;;
55364;SDS011;41245;45.384;20.390;2023-05-07T07:18:46;8.57;;;3.78;;
55364;SDS011;41245;45.384;20.390;2023-05-07T07:21:12;11.88;;;3.67;;
55364;SDS011;41245;45.384;20.390;2023-05-07T07:23:38;12.52;;;4.30;;
55364;SDS011;41245;45.384;20.390;2023-05-07T07:26:03;7.35;;;3.50;;
55364;SDS011;41245;45.384;20.390;2023-05-07T07:28:31;7.03;;;4.13;;
55364;SDS011;41245;45.384;20.390;2023-05-07T07:30:56;6.28;;;3.92;;
55364;SDS011;41245;45.384;20.390;2023-05-07T07:33:22;11.45;;;3.47;;
55364;SDS011;41245;45.384;20.390;2023-05-07T07:35:47;6.32;;;3.72;;
55364;SDS011;41245;45.384;20.390;2023-05-07T07:38:13;5.97;;;3.78;;
55364;SDS011;41245;45.384;20.390;2023-05-07T07:40:39;5.38;;;3.65;;
55364;SDS011;41245;45.384;20.390;2023-05-07T07:43:05;5.38;;;4.07;;
55364;SDS011;41245;45.384;20.390;2023-05-07T07:45:31;6.68;;;3.40;;
55364;SDS011;41245;45.384;20.390;2023-05-07T07:47:58;7.75;;;2.80;;
55364;SDS011;41245;45.384;20.390;2023-05-07T07:50:23;7.30;;;3.15;;
55364;SDS011;41245;45.384;20.390;2023-05-07T07:52:49;6.07;;;3.50;;
55364;SDS011;41245;45.384;20.390;2023-05-07T07:55:15;4.25;;;2.83;;
55364;SDS011;41245;45.384;20.390;2023-05-07T07:57:46;6.15;;;3.47;;
55364;SDS011;41245;45.384;20.390;2023-05-07T08:00:11;6.60;;;2.83;;
55364;SDS011;41245;45.384;20.390;2023-05-07T08:02:37;6.18;;;3.40;;
55364;SDS011;41245;45.384;20.390;2023-05-07T08:05:03;6.88;;;3.00;;
55364;SDS011;41245;45.384;20.390;2023-05-07T08:07:29;5.80;;;3.60;;
55364;SDS011;41245;45.384;20.390;2023-05-07T08:09:55;9.85;;;3.38;;
55364;SDS011;41245;45.384;20.390;2023-05-07T08:12:21;9.00;;;2.78;;
55364;SDS011;41245;45.384;20.390;2023-05-07T08:14:46;19.23;;;3.47;;
55364;SDS011;41245;45.384;20.390;2023-05-07T08:17:12;7.53;;;4.15;;
55364;SDS011;41245;45.384;20.390;2023-05-07T08:19:40;4.47;;;2.83;;
55364;SDS011;41245;45.384;20.390;2023-05-07T08:22:06;4.50;;;3.10;;
55364;SDS011;41245;45.384;20.390;2023-05-07T08:24:32;12.13;;;3.65;;
55364;SDS011;41245;45.384;20.390;2023-05-07T08:26:58;5.47;;;3.22;;
55364;SDS011;41245;45.384;20.390;2023-05-07T08:29:23;3.35;;;2.67;;
55364;SDS011;41245;45.384;20.390;2023-05-07T08:31:49;6.10;;;3.03;;
55364;SDS011;41245;45.384;20.390;2023-05-07T08:34:15;10.52;;;3.47;;
55364;SDS011;41245;45.384;20.390;2023-05-07T08:36:40;11.05;;;4.20;;
55364;SDS011;41245;45.384;20.390;2023-05-07T08:39:11;8.38;;;3.25;;
55364;SDS011;41245;45.384;20.390;2023-05-07T08:41:37;12.45;;;3.63;;
55364;SDS011;41245;45.384;20.390;2023-05-07T08:44:03;8.95;;;4.57;;
55364;SDS011;41245;45.384;20.390;2023-05-07T08:46:31;4.97;;;2.80;;
55364;SDS011;41245;45.384;20.390;2023-05-07T08:48:57;4.90;;;2.90;;
55364;SDS011;41245;45.384;20.390;2023-05-07T08:51:23;11.70;;;4.38;;
55364;SDS011;41245;45.384;20.390;2023-05-07T08:53:49;7.50;;;3.25;;
55364;SDS011;41245;45.384;20.390;2023-05-07T08:56:16;16.02;;;3.35;;
55364;SDS011;41245;45.384;20.390;2023-05-07T08:58:42;6.43;;;2.88;;
55364;SDS011;41245;45.384;20.390;2023-05-07T09:01:09;5.50;;;2.45;;
55364;SDS011;41245;45.384;20.390;2023-05-07T09:03:38;10.20;;;3.22;;
55364;SDS011;41245;45.384;20.390;2023-05-07T09:06:05;6.18;;;2.83;;
55364;SDS011;41245;45.384;20.390;2023-05-07T09:08:32;6.93;;;2.60;;
55364;SDS011;41245;45.384;20.390;2023-05-07T09:10:59;6.53;;;2.78;;
55364;SDS011;41245;45.384;20.390;2023-05-07T09:13:25;4.90;;;2.35;;
55364;SDS011;41245;45.384;20.390;2023-05-07T09:15:52;6.32;;;2.72;;
55364;SDS011;41245;45.384;20.390;2023-05-07T09:18:18;3.95;;;2.63;;
55364;SDS011;41245;45.384;20.390;2023-05-07T09:20:45;9.88;;;3.42;;
55364;SDS011;41245;45.384;20.390;2023-05-07T09:23:10;3.15;;;2.22;;
55364;SDS011;41245;45.384;20.390;2023-05-07T09:25:36;7.53;;;3.17;;
55364;SDS011;41245;45.384;20.390;2023-05-07T09:28:03;4.13;;;3.17;;
55364;SDS011;41245;45.384;20.390;2023-05-07T09:32:58;5.68;;;3.20;;
55364;SDS011;41245;45.384;20.390;2023-05-07T09:35:25;8.35;;;3.40;;
55364;SDS011;41245;45.384;20.390;2023-05-07T09:37:55;12.35;;;2.83;;
55364;SDS011;41245;45.384;20.390;2023-05-07T09:40:23;3.95;;;2.50;;
55364;SDS011;41245;45.384;20.390;2023-05-07T09:42:53;5.68;;;3.25;;
55364;SDS011;41245;45.384;20.390;2023-05-07T09:47:53;6.28;;;2.55;;
55364;SDS011;41245;45.384;20.390;2023-05-07T09:50:27;3.58;;;2.28;;
55364;SDS011;41245;45.384;20.390;2023-05-07T09:52:55;3.83;;;2.63;;
55364;SDS011;41245;45.384;20.390;2023-05-07T09:55:22;10.25;;;3.25;;
55364;SDS011;41245;45.384;20.390;2023-05-07T09:57:52;4.68;;;2.92;;
55364;SDS011;41245;45.384;20.390;2023-05-07T10:00:18;6.40;;;3.45;;
55364;SDS011;41245;45.384;20.390;2023-05-07T10:02:49;10.18;;;4.18;;
55364;SDS011;41245;45.384;20.390;2023-05-07T10:05:21;3.92;;;2.50;;
55364;SDS011;41245;45.384;20.390;2023-05-07T10:07:47;3.65;;;2.88;;
55364;SDS011;41245;45.384;20.390;2023-05-07T10:10:14;10.43;;;2.40;;
55364;SDS011;41245;45.384;20.390;2023-05-07T10:12:40;5.03;;;2.85;;
55364;SDS011;41245;45.384;20.390;2023-05-07T10:15:07;4.88;;;2.90;;
55364;SDS011;41245;45.384;20.390;2023-05-07T10:17:40;25.58;;;3.40;;
55364;SDS011;41245;45.384;20.390;2023-05-07T10:20:06;4.15;;;3.22;;
55364;SDS011;41245;45.384;20.390;2023-05-07T10:22:46;4.13;;;3.05;;
55364;SDS011;41245;45.384;20.390;2023-05-07T10:25:14;6.13;;;2.97;;
55364;SDS011;41245;45.384;20.390;2023-05-07T10:27:43;4.38;;;3.13;;
55364;SDS011;41245;45.384;20.390;2023-05-07T10:32:47;8.35;;;3.65;;
55364;SDS011;41245;45.384;20.390;2023-05-07T10:35:18;10.32;;;3.17;;
55364;SDS011;41245;45.384;20.390;2023-05-07T10:37:47;3.90;;;2.78;;
55364;SDS011;41245;45.384;20.390;2023-05-07T10:40:14;5.68;;;2.90;;
55364;SDS011;41245;45.384;20.390;2023-05-07T10:42:52;3.45;;;2.90;;
55364;SDS011;41245;45.384;20.390;2023-05-07T10:45:26;4.90;;;2.72;;
55364;SDS011;41245;45.384;20.390;2023-05-07T10:50:30;3.88;;;2.78;;
55364;SDS011;41245;45.384;20.390;2023-05-07T10:55:47;6.95;;;3.30;;
55364;SDS011;41245;45.384;20.390;2023-05-07T11:00:46;11.43;;;2.78;;
55364;SDS011;41245;45.384;20.390;2023-05-07T11:03:13;2.92;;;2.63;;
55364;SDS011;41245;45.384;20.390;2023-05-07T11:05:40;6.85;;;2.47;;
55364;SDS011;41245;45.384;20.390;2023-05-07T11:08:07;4.45;;;3.08;;
55364;SDS011;41245;45.384;20.390;2023-05-07T11:10:53;3.38;;;2.90;;
55364;SDS011;41245;45.384;20.390;2023-05-07T11:16:24;2.40;;;2.20;;
55364;SDS011;41245;45.384;20.390;2023-05-07T11:18:53;6.28;;;3.13;;
55364;SDS011;41245;45.384;20.390;2023-05-07T11:21:33;6.07;;;2.60;;
55364;SDS011;41245;45.384;20.390;2023-05-07T11:23:59;8.18;;;2.35;;
55364;SDS011;41245;45.384;20.390;2023-05-07T11:26:26;6.05;;;2.50;;
55364;SDS011;41245;45.384;20.390;2023-05-07T11:28:53;6.78;;;2.70;;
55364;SDS011;41245;45.384;20.390;2023-05-07T11:31:21;4.03;;;2.35;;
55364;SDS011;41245;45.384;20.390;2023-05-07T11:33:48;8.05;;;2.90;;
55364;SDS011;41245;45.384;20.390;2023-05-07T11:36:14;3.97;;;2.40;;
55364;SDS011;41245;45.384;20.390;2023-05-07T11:38:40;4.68;;;2.78;;
55364;SDS011;41245;45.384;20.390;2023-05-07T11:41:06;4.70;;;2.25;;
55364;SDS011;41245;45.384;20.390;2023-05-07T11:43:32;7.95;;;2.63;;
55364;SDS011;41245;45.384;20.390;2023-05-07T11:46:10;3.78;;;2.17;;
55364;SDS011;41245;45.384;20.390;2023-05-07T11:48:37;10.45;;;2.53;;
55364;SDS011;41245;45.384;20.390;2023-05-07T11:51:04;2.85;;;2.20;;
55364;SDS011;41245;45.384;20.390;2023-05-07T11:53:37;7.55;;;2.53;;
55364;SDS011;41245;45.384;20.390;2023-05-07T11:56:08;6.25;;;2.17;;
55364;SDS011;41245;45.384;20.390;2023-05-07T11:58:39;2.60;;;2.40;;
55364;SDS011;41245;45.384;20.390;2023-05-07T12:01:07;6.28;;;2.35;;
55364;SDS011;41245;45.384;20.390;2023-05-07T12:03:35;4.35;;;2.58;;
55364;SDS011;41245;45.384;20.390;2023-05-07T12:06:07;5.35;;;3.38;;
55364;SDS011;41245;45.384;20.390;2023-05-07T12:08:35;6.22;;;2.53;;
55364;SDS011;41245;45.384;20.390;2023-05-07T12:11:03;8.70;;;3.05;;
55364;SDS011;41245;45.384;20.390;2023-05-07T12:13:31;3.70;;;2.30;;
55364;SDS011;41245;45.384;20.390;2023-05-07T12:15:57;9.63;;;2.50;;
55364;SDS011;41245;45.384;20.390;2023-05-07T12:18:23;6.95;;;2.75;;
55364;SDS011;41245;45.384;20.390;2023-05-07T12:20:50;3.38;;;2.50;;
55364;SDS011;41245;45.384;20.390;2023-05-07T12:23:16;4.55;;;2.45;;
55364;SDS011;41245;45.384;20.390;2023-05-07T12:25:43;3.08;;;2.53;;
55364;SDS011;41245;45.384;20.390;2023-05-07T12:28:15;3.63;;;2.63;;
55364;SDS011;41245;45.384;20.390;2023-05-07T12:30:45;8.18;;;3.78;;
55364;SDS011;41245;45.384;20.390;2023-05-07T12:33:16;2.67;;;2.15;;
55364;SDS011;41245;45.384;20.390;2023-05-07T12:35:43;8.10;;;2.72;;
55364;SDS011;41245;45.384;20.390;2023-05-07T12:38:13;9.13;;;3.13;;
55364;SDS011;41245;45.384;20.390;2023-05-07T12:40:44;3.85;;;2.60;;
55364;SDS011;41245;45.384;20.390;2023-05-07T12:43:18;6.57;;;2.63;;
55364;SDS011;41245;45.384;20.390;2023-05-07T12:45:49;3.53;;;2.13;;
55364;SDS011;41245;45.384;20.390;2023-05-07T12:48:16;6.10;;;3.05;;
55364;SDS011;41245;45.384;20.390;2023-05-07T12:50:41;4.35;;;2.80;;
55364;SDS011;41245;45.384;20.390;2023-05-07T12:53:08;8.48;;;2.33;;
55364;SDS011;41245;45.384;20.390;2023-05-07T12:55:43;2.50;;;2.30;;
55364;SDS011;41245;45.384;20.390;2023-05-07T12:58:17;3.58;;;2.17;;
55364;SDS011;41245;45.384;20.390;2023-05-07T13:00:47;6.57;;;2.60;;
55364;SDS011;41245;45.384;20.390;2023-05-07T13:03:20;8.13;;;2.20;;
55364;SDS011;41245;45.384;20.390;2023-05-07T13:05:54;3.00;;;2.35;;
55364;SDS011;41245;45.384;20.390;2023-05-07T13:11:01;4.30;;;2.58;;
55364;SDS011;41245;45.384;20.390;2023-05-07T13:13:29;6.93;;;2.20;;
55364;SDS011;41245;45.384;20.390;2023-05-07T13:15:57;2.92;;;2.28;;
55364;SDS011;41245;45.384;20.390;2023-05-07T13:18:26;4.13;;;2.00;;
55364;SDS011;41245;45.384;20.390;2023-05-07T13:20:54;5.28;;;2.42;;
55364;SDS011;41245;45.384;20.390;2023-05-07T13:23:20;2.92;;;1.90;;
55364;SDS011;41245;45.384;20.390;2023-05-07T13:25:45;4.45;;;2.58;;
55364;SDS011;41245;45.384;20.390;2023-05-07T13:28:11;6.90;;;2.85;;
55364;SDS011;41245;45.384;20.390;2023-05-07T13:30:37;4.97;;;2.22;;
55364;SDS011;41245;45.384;20.390;2023-05-07T13:33:04;3.80;;;2.05;;
55364;SDS011;41245;45.384;20.390;2023-05-07T13:35:29;5.55;;;2.50;;
55364;SDS011;41245;45.384;20.390;2023-05-07T13:37:55;3.50;;;2.35;;
55364;SDS011;41245;45.384;20.390;2023-05-07T13:40:21;2.28;;;2.08;;
55364;SDS011;41245;45.384;20.390;2023-05-07T13:42:48;4.68;;;3.13;;
55364;SDS011;41245;45.384;20.390;2023-05-07T13:45:14;6.18;;;2.40;;
55364;SDS011;41245;45.384;20.390;2023-05-07T13:47:40;3.90;;;2.60;;
55364;SDS011;41245;45.384;20.390;2023-05-07T13:50:07;5.05;;;2.22;;
55364;SDS011;41245;45.384;20.390;2023-05-07T13:52:33;4.53;;;2.00;;
55364;SDS011;41245;45.384;20.390;2023-05-07T13:54:59;3.67;;;1.90;;
55364;SDS011;41245;45.384;20.390;2023-05-07T13:57:25;5.13;;;2.67;;
55364;SDS011;41245;45.384;20.390;2023-05-07T13:59:51;12.65;;;6.70;;
55364;SDS011;41245;45.384;20.390;2023-05-07T14:02:16;6.57;;;3.30;;
55364;SDS011;41245;45.384;20.390;2023-05-07T14:04:42;5.30;;;2.28;;
55364;SDS011;41245;45.384;20.390;2023-05-07T14:07:08;5.07;;;2.35;;
55364;SDS011;41245;45.384;20.390;2023-05-07T14:09:33;2.60;;;2.40;;
55364;SDS011;41245;45.384;20.390;2023-05-07T14:11:59;3.88;;;2.53;;
55364;SDS011;41245;45.384;20.390;2023-05-07T14:14:26;3.90;;;1.92;;
55364;SDS011;41245;45.384;20.390;2023-05-07T14:16:52;4.22;;;2.13;;
55364;SDS011;41245;45.384;20.390;2023-05-07T14:19:17;3.35;;;2.13;;
55364;SDS011;41245;45.384;20.390;2023-05-07T14:21:43;3.72;;;2.33;;
55364;SDS011;41245;45.384;20.390;2023-05-07T14:24:09;4.55;;;2.35;;
55364;SDS011;41245;45.384;20.390;2023-05-07T14:26:35;6.30;;;2.70;;
55364;SDS011;41245;45.384;20.390;2023-05-07T14:29:01;11.27;;;2.85;;
55364;SDS011;41245;45.384;20.390;2023-05-07T14:31:28;5.63;;;3.22;;
55364;SDS011;41245;45.384;20.390;2023-05-07T14:33:53;2.95;;;2.22;;
55364;SDS011;41245;45.384;20.390;2023-05-07T14:36:19;4.03;;;2.72;;
55364;SDS011;41245;45.384;20.390;2023-05-07T14:38:46;5.97;;;2.70;;
55364;SDS011;41245;45.384;20.390;2023-05-07T14:41:12;3.15;;;2.70;;
55364;SDS011;41245;45.384;20.390;2023-05-07T14:43:38;3.10;;;2.22;;
55364;SDS011;41245;45.384;20.390;2023-05-07T14:46:03;6.53;;;3.00;;
55364;SDS011;41245;45.384;20.390;2023-05-07T14:48:29;6.10;;;2.47;;
55364;SDS011;41245;45.384;20.390;2023-05-07T14:50:55;5.60;;;2.35;;